Time;durP1;ratioP1;P1;durP2;ratioP2;P2;SDS_P1;SDS_P2;PMS_P1;PMS_P2;Temp;Humidity;BMP_temperature;BMP_pressure;BME280_temperature;BME280_humidity;BME280_pressure;Samples;Min_cycle;Max_cycle;Signal;HPM_P1;HPM_P2
2022/02/13 00:04:10;;;;;;;12.25;5.25;;;;;;;0.94;63.16;100880.25;8663038;33;20211;-73
2022/02/13 00:09:14;;;;;;;12.15;5.75;;;;;;;0.96;63.19;100857.22;8652624;33;21909;-74
2022/02/13 00:14:17;;;;;;;10.23;5.10;;;;;;;0.98;62.87;100850.97;8663260;33;20244;-73
2022/02/13 00:19:20;;;;;;;9.10;3.88;;;;;;;1.15;62.04;100847.78;8661405;33;20219;-73
2022/02/13 00:24:27;;;;;;;6.07;3.90;;;;;;;1.16;61.71;100838.91;8662393;33;20216;-72
2022/02/13 00:29:30;;;;;;;9.73;4.75;;;;;;;1.22;61.29;100848.41;8661138;33;21600;-73
2022/02/13 00:34:33;;;;;;;8.80;4.25;;;;;;;1.16;61.88;100832.75;8661655;33;20157;-73
2022/02/13 00:39:38;;;;;;;9.27;4.85;;;;;;;1.18;61.28;100828.25;8660556;33;20190;-73
2022/02/13 00:44:41;;;;;;;5.03;4.10;;;;;;;1.26;60.98;100821.78;8660586;33;22012;-73
2022/02/13 00:49:45;;;;;;;6.20;4.25;;;;;;;1.22;60.62;100803.41;8660454;33;20612;-74
2022/02/13 00:54:49;;;;;;;7.20;4.18;;;;;;;1.23;60.89;100808.63;8659780;33;20728;-73
2022/02/13 00:59:52;;;;;;;6.20;3.92;;;;;;;1.24;60.09;100807.75;8660359;33;20560;-73
2022/02/13 01:04:55;;;;;;;10.98;5.18;;;;;;;1.40;60.14;100801.88;8660484;33;20449;-74
2022/02/13 01:10:00;;;;;;;9.77;4.97;;;;;;;1.46;59.75;100806.97;8662035;33;21072;-74
2022/02/13 01:15:05;;;;;;;6.72;4.45;;;;;;;1.49;59.38;100802.41;8665380;33;20868;-73
2022/02/13 01:20:10;;;;;;;8.93;4.63;;;;;;;1.48;59.32;100806.00;8661776;33;20646;-73
2022/02/13 01:25:14;;;;;;;8.80;5.03;;;;;;;1.45;59.85;100795.53;8659951;33;20686;-73
2022/02/13 01:30:17;;;;;;;9.48;4.55;;;;;;;1.42;59.77;100798.25;8659224;33;20206;-74
2022/02/13 01:35:20;;;;;;;8.57;4.80;;;;;;;1.41;59.52;100793.03;8659385;33;20805;-73
2022/02/13 01:40:25;;;;;;;9.25;4.43;;;;;;;1.42;59.56;100792.97;8659126;33;20236;-74
2022/02/13 01:45:28;;;;;;;9.55;4.50;;;;;;;1.35;59.59;100767.66;8659645;33;20579;-73
2022/02/13 01:50:31;;;;;;;9.50;4.82;;;;;;;1.39;59.54;100757.81;8658564;33;20768;-73
2022/02/13 01:55:35;;;;;;;7.07;4.82;;;;;;;1.37;59.76;100760.53;8659270;33;20188;-74
2022/02/13 02:00:38;;;;;;;7.07;4.80;;;;;;;1.20;60.12;100754.97;8658161;33;20236;-73
2022/02/13 02:05:42;;;;;;;8.05;4.22;;;;;;;1.19;60.16;100761.19;8658114;33;20192;-73
2022/02/13 02:10:50;;;;;;;6.47;4.20;;;;;;;1.15;60.05;100746.31;8658324;33;20622;-73
2022/02/13 02:15:53;;;;;;;8.00;4.80;;;;;;;1.20;59.73;100747.03;8658056;33;20176;-74
2022/02/13 02:21:02;;;;;;;7.68;5.05;;;;;;;1.21;59.38;100744.34;8657617;33;20223;-73
2022/02/13 02:26:07;;;;;;;8.15;4.43;;;;;;;1.17;59.27;100750.66;8658857;33;20226;-74
2022/02/13 02:31:11;;;;;;;7.10;4.40;;;;;;;1.18;58.78;100747.09;8657622;33;20931;-72
2022/02/13 02:36:16;;;;;;;6.53;4.57;;;;;;;1.12;58.96;100730.56;8658602;33;20176;-72
2022/02/13 02:41:20;;;;;;;8.48;4.22;;;;;;;1.13;58.87;100719.06;8658205;33;20190;-73
2022/02/13 02:46:25;;;;;;;11.60;5.05;;;;;;;1.11;58.62;100712.97;8658121;33;20133;-74
2022/02/13 02:51:28;;;;;;;8.45;4.93;;;;;;;1.04;58.63;100702.63;8715203;33;20144;-74
2022/02/13 02:56:33;;;;;;;5.93;4.28;;;;;;;0.98;58.56;100678.16;8715375;33;20183;-74
2022/02/13 03:01:36;;;;;;;7.30;4.20;;;;;;;1.00;58.59;100665.75;8714967;33;20233;-74
2022/02/13 03:06:41;;;;;;;6.90;4.30;;;;;;;0.99;58.47;100659.59;8716036;33;20896;-74
2022/02/13 03:11:45;;;;;;;7.17;4.00;;;;;;;0.91;58.52;100647.56;8714553;33;20188;-72
2022/02/13 03:16:49;;;;;;;6.45;4.00;;;;;;;0.79;58.10;100635.63;8716077;33;20602;-72
2022/02/13 03:21:52;;;;;;;6.95;3.95;;;;;;;0.90;57.92;100633.44;8720145;33;20224;-73
2022/02/13 03:26:57;;;;;;;7.47;4.05;;;;;;;0.95;57.69;100623.56;8719615;33;20211;-74
2022/02/13 03:32:00;;;;;;;5.80;4.05;;;;;;;1.00;57.07;100611.03;8719886;33;20214;-74
2022/02/13 03:37:03;;;;;;;7.45;3.72;;;;;;;1.00;57.00;100615.47;8719573;33;20261;-74
2022/02/13 03:42:09;;;;;;;6.90;4.68;;;;;;;1.08;56.60;100601.97;8719401;33;20167;-74
2022/02/13 03:47:13;;;;;;;7.72;4.68;;;;;;;0.94;56.65;100605.13;8719527;33;20231;-74
2022/02/13 03:52:16;;;;;;;5.72;3.45;;;;;;;1.10;56.24;100606.28;8719412;33;20287;-74
2022/02/13 03:57:21;;;;;;;6.32;3.85;;;;;;;1.08;56.33;100594.03;8719141;33;20839;-74
2022/02/13 04:02:24;;;;;;;5.45;3.75;;;;;;;1.09;56.16;100586.00;8718877;33;20190;-74
2022/02/13 04:07:28;;;;;;;7.20;4.20;;;;;;;1.04;56.23;100572.97;8719731;33;20680;-74
2022/02/13 04:12:32;;;;;;;6.78;4.40;;;;;;;0.98;56.75;100564.41;8718922;33;21399;-74
2022/02/13 04:17:36;;;;;;;5.93;4.30;;;;;;;0.87;57.19;100567.44;8718916;33;20367;-74
2022/02/13 04:22:40;;;;;;;7.63;3.95;;;;;;;0.84;56.52;100573.72;8719450;33;20875;-72
2022/02/13 04:27:45;;;;;;;6.73;3.80;;;;;;;0.93;56.07;100571.63;8719536;33;20254;-72
2022/02/13 04:32:48;;;;;;;5.38;3.60;;;;;;;0.84;56.32;100571.06;8718560;33;20464;-72
2022/02/13 04:37:52;;;;;;;6.53;3.95;;;;;;;0.83;55.89;100558.78;8718973;33;22289;-72
2022/02/13 04:42:56;;;;;;;7.13;4.28;;;;;;;0.75;55.92;100554.69;8718114;33;21436;-75
2022/02/13 04:48:00;;;;;;;6.95;3.72;;;;;;;0.66;56.11;100558.56;8717899;33;20223;-75
2022/02/13 04:53:03;;;;;;;6.60;3.50;;;;;;;0.63;56.25;100548.06;8717945;33;20191;-74
2022/02/13 04:58:07;;;;;;;8.83;3.80;;;;;;;0.60;56.01;100530.56;8717735;33;20183;-75
2022/02/13 05:03:10;;;;;;;7.47;3.83;;;;;;;0.60;55.72;100521.75;8717695;33;20850;-74
2022/02/13 05:08:13;;;;;;;7.32;3.58;;;;;;;0.59;55.54;100509.47;8717913;33;20700;-73
2022/02/13 05:13:18;;;;;;;7.07;3.42;;;;;;;0.60;55.48;100513.81;8717147;33;20191;-74
2022/02/13 05:18:21;;;;;;;9.23;3.70;;;;;;;0.63;54.93;100492.53;8717253;33;20665;-74
2022/02/13 05:23:25;;;;;;;6.68;3.72;;;;;;;0.59;54.61;100489.16;8716550;33;20190;-74
2022/02/13 05:28:29;;;;;;;5.20;3.58;;;;;;;0.65;54.39;100497.78;8716942;33;20254;-74
2022/02/13 05:33:32;;;;;;;6.63;3.47;;;;;;;0.64;54.52;100490.78;8716924;33;21929;-73
2022/02/13 05:38:35;;;;;;;8.00;3.73;;;;;;;0.61;53.74;100487.34;8716464;33;20577;-74
2022/02/13 05:43:39;;;;;;;5.80;3.78;;;;;;;0.72;53.53;100484.28;8716466;33;20427;-74
2022/02/13 05:48:45;;;;;;;3.55;3.10;;;;;;;0.77;52.94;100478.81;8717987;33;20936;-74
2022/02/13 05:53:48;;;;;;;5.97;3.10;;;;;;;0.81;52.57;100483.91;8721769;33;21645;-74
2022/02/13 05:58:53;;;;;;;8.23;3.70;;;;;;;0.82;52.16;100492.69;8717588;33;20660;-73
2022/02/13 06:03:56;;;;;;;5.80;3.85;;;;;;;0.84;52.02;100490.88;8717186;33;20183;-74
2022/02/13 06:08:59;;;;;;;6.25;3.65;;;;;;;0.87;51.75;100482.81;8691875;33;20140;-74
2022/02/13 06:14:03;;;;;;;4.80;3.00;;;;;;;0.82;51.76;100490.06;8716011;33;20260;-74
2022/02/13 06:19:07;;;;;;;5.22;3.72;;;;;;;0.75;52.01;100493.88;8715789;33;20692;-74
2022/02/13 06:24:10;;;;;;;5.03;2.93;;;;;;;0.59;51.91;100493.59;8717550;33;21639;-74
2022/02/13 06:29:15;;;;;;;4.95;3.42;;;;;;;0.66;51.92;100483.63;8716666;33;20132;-73
2022/02/13 06:34:18;;;;;;;7.03;3.72;;;;;;;0.61;51.59;100492.63;8716438;33;20274;-73
2022/02/13 06:39:21;;;;;;;3.90;3.35;;;;;;;0.73;50.80;100490.44;8716319;33;20680;-74
2022/02/13 06:44:25;;;;;;;6.00;3.50;;;;;;;0.79;50.73;100495.47;8716812;33;20609;-73
2022/02/13 06:49:28;;;;;;;6.35;3.30;;;;;;;0.71;50.60;100485.19;8716741;33;20459;-74
2022/02/13 06:54:31;;;;;;;4.13;3.40;;;;;;;0.75;50.77;100484.16;8720340;33;20262;-75
2022/02/13 06:59:36;;;;;;;6.38;4.05;;;;;;;0.77;50.92;100492.03;8721086;33;20408;-74
2022/02/13 07:04:39;;;;;;;6.43;3.47;;;;;;;0.81;50.76;100477.78;8722469;33;20227;-73
2022/02/13 07:09:42;;;;;;;4.77;3.50;;;;;;;0.88;50.62;100484.56;8722529;33;20564;-74
2022/02/13 07:14:49;;;;;;;5.68;3.70;;;;;;;0.92;50.43;100472.91;8722483;33;20241;-74
2022/02/13 07:19:53;;;;;;;7.18;3.92;;;;;;;1.17;49.67;100477.22;8721391;33;20217;-73
2022/02/13 07:24:56;;;;;;;5.70;3.03;;;;;;;1.32;49.54;100486.31;8721994;33;20211;-71
2022/02/13 07:30:01;;;;;;;8.77;3.80;;;;;;;1.55;48.81;100486.22;8730408;33;20243;-74
2022/02/13 07:35:05;;;;;;;4.32;3.20;;;;;;;1.80;48.48;100478.09;8733792;33;20191;-74
2022/02/13 07:40:10;;;;;;;3.65;3.20;;;;;;;2.19;47.79;100479.94;8710520;33;20184;-74
2022/02/13 07:45:19;;;;;;;6.70;3.17;;;;;;;2.62;46.50;100483.31;8668404;33;20252;-73
2022/02/13 07:50:22;;;;;;;5.32;3.40;;;;;;;2.77;46.16;100481.72;8684994;33;20926;-73
2022/02/13 07:55:25;;;;;;;3.65;3.13;;;;;;;2.61;46.39;100489.56;8636723;33;20188;-75
2022/02/13 08:00:30;;;;;;;5.22;3.53;;;;;;;2.68;46.04;100472.41;8660924;33;20185;-73
2022/02/13 08:05:33;;;;;;;5.70;4.20;;;;;;;2.93;46.15;100458.84;8661857;33;20213;-73
2022/02/13 08:10:40;;;;;;;6.07;4.00;;;;;;;2.49;46.61;100459.09;8661652;33;20459;-73
2022/02/13 08:15:45;;;;;;;6.75;4.32;;;;;;;2.39;46.70;100445.44;8662494;33;20242;-74
2022/02/13 08:20:53;;;;;;;6.50;3.80;;;;;;;2.56;46.37;100446.47;8661598;33;20242;-73
2022/02/13 08:25:56;;;;;;;7.00;4.38;;;;;;;2.57;46.50;100433.13;8664791;33;20168;-78
2022/02/13 08:31:01;;;;;;;5.22;2.95;;;;;;;2.60;45.79;100434.78;8720948;33;20278;-75
2022/02/13 08:36:04;;;;;;;3.72;3.20;;;;;;;2.93;45.35;100429.66;8719939;33;20180;-74
2022/02/13 08:41:07;;;;;;;7.95;3.90;;;;;;;3.50;44.14;100414.41;8718637;33;20187;-74
2022/02/13 08:46:12;;;;;;;5.68;3.72;;;;;;;3.95;43.36;100420.09;8719204;33;20180;-73
2022/02/13 08:51:16;;;;;;;6.75;3.35;;;;;;;4.17;42.51;100419.81;8718731;33;20704;-74
2022/02/13 08:56:19;;;;;;;7.10;3.78;;;;;;;4.31;42.05;100411.09;8717622;33;20842;-74
2022/02/13 09:01:23;;;;;;;5.70;3.47;;;;;;;4.37;41.06;100405.41;8717859;33;20230;-74
2022/02/13 09:06:26;;;;;;;6.47;4.43;;;;;;;4.58;41.84;100404.25;8718308;33;20514;-74
2022/02/13 09:11:29;;;;;;;6.28;3.55;;;;;;;4.95;40.77;100396.81;8718053;33;20454;-74
2022/02/13 09:16:34;;;;;;;5.82;3.50;;;;;;;5.47;40.27;100395.63;8716958;33;20552;-74
2022/02/13 09:21:37;;;;;;;5.45;3.60;;;;;;;5.62;39.67;100401.81;8717096;33;20148;-74
2022/02/13 09:26:39;;;;;;;7.90;4.70;;;;;;;5.62;40.30;100391.16;8716944;33;20188;-74
2022/02/13 09:31:44;;;;;;;6.38;4.07;;;;;;;5.55;39.64;100397.81;8691592;33;20175;-73
2022/02/13 09:36:47;;;;;;;5.32;3.97;;;;;;;5.39;40.39;100401.38;8716858;33;20190;-73
2022/02/13 09:41:51;;;;;;;5.38;4.15;;;;;;;5.44;40.23;100395.81;8716788;33;21089;-74
2022/02/13 09:46:55;;;;;;;7.28;3.88;;;;;;;5.14;41.33;100396.66;8716569;33;20183;-74
2022/02/13 09:51:58;;;;;;;9.02;4.35;;;;;;;4.80;41.86;100381.72;8717230;33;20447;-73
2022/02/13 10:02:37;;;;;;;5.40;3.60;;;;;;;6.34;39.07;100366.25;8708682;33;20187;-75
2022/02/13 10:07:40;;;;;;;5.80;4.13;;;;;;;6.36;39.41;100361.66;8707415;33;20186;-74
2022/02/13 10:12:47;;;;;;;6.47;4.15;;;;;;;6.47;39.94;100352.09;8701095;33;20155;-74
2022/02/13 10:18:00;;;;;;;5.25;4.13;;;;;;;5.98;41.42;100349.88;8715806;33;20183;-73
2022/02/13 10:23:06;;;;;;;6.35;4.30;;;;;;;7.43;40.58;100344.84;8714728;33;20413;-73
2022/02/13 10:28:12;;;;;;;5.10;3.70;;;;;;;6.62;40.43;100345.78;8680700;33;21474;-72
2022/02/13 10:33:22;;;;;;;5.38;3.80;;;;;;;7.37;39.47;100326.56;8727707;33;20251;-72
2022/02/13 10:38:30;;;;;;;5.20;4.05;;;;;;;7.99;39.21;100321.34;8775501;33;20446;-76
2022/02/13 10:43:57;;;;;;;4.90;3.28;;;;;;;8.14;38.83;100304.16;8774977;33;20213;-75
2022/02/13 10:49:02;;;;;;;5.78;3.60;;;;;;;7.94;38.29;100302.94;8775207;33;20183;-75
2022/02/13 10:54:05;;;;;;;6.00;4.30;;;;;;;8.11;38.09;100277.63;8775076;33;20232;-76
2022/02/13 10:59:11;;;;;;;5.05;3.80;;;;;;;7.94;37.97;100278.00;8775072;33;20896;-75
2022/02/13 11:04:16;;;;;;;7.40;4.13;;;;;;;7.99;38.14;100281.22;8733447;33;20195;-75
2022/02/13 11:09:25;;;;;;;6.40;4.05;;;;;;;8.56;37.54;100251.19;8715176;33;20625;-75
2022/02/13 11:14:34;;;;;;;5.03;3.90;;;;;;;8.28;37.45;100247.00;8713958;33;20897;-75
2022/02/13 11:19:39;;;;;;;6.18;3.50;;;;;;;8.10;38.07;100243.81;8715087;33;20254;-75
2022/02/13 11:24:50;;;;;;;5.63;4.00;;;;;;;8.30;37.63;100228.97;8717358;33;20164;-74
2022/02/13 11:29:56;;;;;;;4.28;3.20;;;;;;;8.56;37.50;100218.19;8720659;33;21654;-74
2022/02/13 11:35:01;;;;;;;5.35;3.40;;;;;;;8.97;36.95;100214.19;8715840;33;20533;-74
2022/02/13 11:40:05;;;;;;;4.10;3.42;;;;;;;9.70;36.21;100204.84;8718793;33;20195;-74
2022/02/13 11:45:19;;;;;;;5.10;3.70;;;;;;;9.34;36.75;100181.84;8720133;33;20249;-73
2022/02/13 11:50:27;;;;;;;4.53;3.22;;;;;;;9.66;35.28;100182.81;8720204;33;20243;-75
2022/02/13 11:55:36;;;;;;;5.15;3.20;;;;;;;9.81;35.64;100150.34;8720274;33;20194;-74
2022/02/13 12:00:45;;;;;;;4.85;3.25;;;;;;;10.62;34.60;100148.97;8718865;33;20187;-76
2022/02/13 12:06:30;;;;;;;3.92;2.60;;;;;;;11.12;33.44;100149.16;8720149;33;20190;-75
2022/02/13 12:11:37;;;;;;;3.38;2.97;;;;;;;10.56;34.32;100128.88;8720056;33;20224;-74
2022/02/13 12:16:40;;;;;;;4.63;3.42;;;;;;;10.74;34.73;100122.91;8718896;33;20247;-74
2022/02/13 12:21:44;;;;;;;4.20;3.17;;;;;;;9.92;35.30;100123.50;8717513;33;20187;-74
2022/02/13 12:27:00;;;;;;;5.18;2.83;;;;;;;10.28;34.35;100100.78;8718896;33;20245;-75
2022/02/13 12:32:08;;;;;;;4.28;3.05;;;;;;;11.53;33.33;100101.66;8720061;33;20237;-75
2022/02/13 12:37:12;;;;;;;5.20;3.53;;;;;;;10.99;33.11;100089.38;8720042;33;20539;-74
2022/02/13 12:59:31;;;;;;;5.05;2.95;;;;;;;10.47;32.45;100070.56;8639830;29;20161;-73
2022/02/13 13:04:34;;;;;;;5.13;2.58;;;;;;;11.54;31.13;100068.38;8346343;35;20246;-73
2022/02/13 13:09:37;;;;;;;4.72;2.97;;;;;;;10.66;31.96;100058.22;8404435;34;20184;-74
2022/02/13 13:14:41;;;;;;;2.97;2.50;;;;;;;10.93;31.19;100036.16;8415490;34;20231;-74
2022/02/13 13:19:45;;;;;;;3.05;2.30;;;;;;;10.61;32.15;100038.00;8414477;34;20247;-74
2022/02/13 13:24:50;;;;;;;3.40;2.47;;;;;;;10.19;32.13;100028.25;8413779;34;20227;-75
2022/02/13 13:29:54;;;;;;;3.08;2.65;;;;;;;11.24;31.12;100002.94;8400557;34;20549;-76
2022/02/13 13:34:57;;;;;;;2.97;2.67;;;;;;;11.58;31.39;99991.78;8360074;35;20189;-75
2022/02/13 13:40:08;;;;;;;4.32;2.53;;;;;;;11.40;31.00;99977.31;8360943;34;20157;-76
2022/02/13 13:45:16;;;;;;;3.22;2.25;;;;;;;10.83;31.15;99966.25;8360598;35;20164;-76
2022/02/13 13:50:23;;;;;;;2.63;2.40;;;;;;;10.83;31.66;99953.69;8360236;35;20658;-77
2022/02/13 13:55:26;;;;;;;4.28;2.90;;;;;;;10.66;31.94;99943.56;8360443;35;20729;-76
2022/02/13 14:00:31;;;;;;;2.70;2.40;;;;;;;11.14;31.49;99942.91;8359489;35;20244;-76
2022/02/13 14:05:36;;;;;;;5.80;2.25;;;;;;;10.82;31.68;99937.69;8360089;35;20149;-76
2022/02/13 14:10:41;;;;;;;3.92;2.92;;;;;;;10.50;32.33;99924.44;8360767;35;20157;-76
2022/02/13 14:15:46;;;;;;;4.25;2.50;;;;;;;10.05;32.75;99922.94;8361860;35;20464;-76
2022/02/13 14:20:50;;;;;;;3.60;2.22;;;;;;;10.33;32.78;99916.03;8360754;35;20552;-77
2022/02/13 14:25:53;;;;;;;4.05;2.63;;;;;;;10.58;32.86;99906.66;8361463;35;20153;-74
2022/02/13 14:30:58;;;;;;;5.28;3.25;;;;;;;10.79;33.04;99885.09;8360299;35;20153;-75
2022/02/13 14:36:01;;;;;;;3.28;2.40;;;;;;;10.00;34.82;99879.56;8360160;35;20168;-75
2022/02/13 14:41:04;;;;;;;3.65;2.35;;;;;;;10.15;35.11;99875.53;8360456;35;20186;-74
2022/02/13 14:46:09;;;;;;;3.40;2.55;;;;;;;10.47;34.97;99861.09;8360090;35;20154;-75
2022/02/13 14:51:12;;;;;;;4.13;2.33;;;;;;;10.61;35.15;99852.69;8359880;35;20238;-76
2022/02/13 14:56:15;;;;;;;3.30;2.60;;;;;;;10.55;35.99;99855.06;8359516;35;20216;-76
2022/02/13 15:01:20;;;;;;;3.13;2.85;;;;;;;10.52;35.87;99842.75;8358408;35;20647;-74
2022/02/13 15:06:23;;;;;;;4.10;2.63;;;;;;;10.77;36.17;99840.53;8360558;35;20197;-75
2022/02/13 15:11:26;;;;;;;3.20;2.53;;;;;;;10.59;37.03;99818.91;8359855;35;20161;-76
2022/02/13 15:16:31;;;;;;;3.60;2.30;;;;;;;10.31;37.40;99807.06;8366597;35;20154;-75
2022/02/13 15:21:34;;;;;;;3.00;2.47;;;;;;;10.08;38.11;99798.38;8374264;34;20204;-76
2022/02/13 15:26:37;;;;;;;5.65;2.50;;;;;;;9.97;38.75;99779.72;8363798;34;20156;-75
2022/02/13 15:31:41;;;;;;;4.07;2.90;;;;;;;9.92;39.03;99777.41;8362925;34;20161;-75
2022/02/13 15:36:44;;;;;;;2.95;2.47;;;;;;;9.53;40.00;99765.63;8363380;34;20154;-75
2022/02/13 15:41:47;;;;;;;3.42;2.92;;;;;;;9.24;40.57;99771.66;8353140;34;20181;-75
2022/02/13 15:46:54;;;;;;;4.57;2.88;;;;;;;9.31;40.80;99770.16;8311156;35;20162;-75
2022/02/13 15:51:57;;;;;;;3.35;2.88;;;;;;;8.83;41.81;99757.22;8309247;35;20154;-75
2022/02/13 15:57:01;;;;;;;4.30;2.97;;;;;;;9.00;41.84;99756.69;8309901;35;20150;-75
2022/02/13 16:02:05;;;;;;;4.57;2.83;;;;;;;8.97;42.23;99751.59;8342804;35;20317;-76
2022/02/13 16:07:09;;;;;;;4.43;2.90;;;;;;;8.83;42.62;99730.44;8363703;35;20594;-74
2022/02/13 16:12:13;;;;;;;3.25;2.85;;;;;;;8.67;43.13;99712.16;8363358;34;20258;-73
2022/02/13 16:17:17;;;;;;;5.88;3.40;;;;;;;8.63;43.62;99699.16;8363201;34;20165;-77
2022/02/13 16:22:20;;;;;;;6.82;4.03;;;;;;;8.25;46.00;99711.19;8362678;34;20161;-74
2022/02/13 16:27:23;;;;;;;10.05;5.38;;;;;;;7.82;48.34;99704.84;8361875;34;20206;-75
2022/02/13 16:32:28;;;;;;;8.75;6.45;;;;;;;7.46;50.08;99698.78;8362938;34;20213;-75
2022/02/13 16:37:31;;;;;;;10.52;6.72;;;;;;;7.35;51.41;99684.53;8361164;34;20150;-74
2022/02/13 16:42:35;;;;;;;13.45;7.70;;;;;;;7.25;52.57;99695.09;8452580;34;20156;-76
2022/02/13 16:47:39;;;;;;;12.30;6.75;;;;;;;7.00;54.00;99686.31;8458781;34;20215;-75
2022/02/13 16:52:42;;;;;;;10.80;7.03;;;;;;;6.95;54.39;99672.47;8470488;34;20673;-75
2022/02/13 16:57:45;;;;;;;13.65;8.77;;;;;;;6.88;55.29;99660.56;8470392;34;20140;-75
2022/02/13 17:02:50;;;;;;;11.30;8.52;;;;;;;6.75;56.05;99654.47;8421604;34;20156;-74
2022/02/13 17:07:53;;;;;;;12.98;8.05;;;;;;;6.71;56.48;99658.31;8416665;34;20690;-75
2022/02/13 17:12:56;;;;;;;12.63;8.00;;;;;;;6.68;56.61;99659.41;8416805;34;20157;-75
2022/02/13 17:18:00;;;;;;;10.52;6.97;;;;;;;6.61;57.16;99675.03;8416941;34;20580;-75
2022/02/13 17:23:03;;;;;;;13.40;8.15;;;;;;;6.51;57.43;99658.00;8420465;34;20152;-75
2022/02/13 17:28:09;;;;;;;9.40;7.80;;;;;;;6.63;57.29;99654.41;8425965;34;20163;-75
2022/02/13 17:33:13;;;;;;;13.30;8.27;;;;;;;6.48;57.54;99642.25;8421826;34;20155;-75
2022/02/13 17:38:16;;;;;;;11.00;8.00;;;;;;;6.37;58.39;99660.88;8416999;34;20182;-74
2022/02/13 17:43:20;;;;;;;17.42;8.65;;;;;;;6.46;58.50;99644.16;8415757;34;20243;-75
2022/02/13 17:48:25;;;;;;;12.93;8.65;;;;;;;6.38;58.73;99638.56;8419684;34;20149;-75
2022/02/13 17:53:28;;;;;;;15.40;9.35;;;;;;;6.44;58.81;99648.75;8423701;34;20152;-76
2022/02/13 18:09:34;;;;;;;18.13;9.25;;;;;;;6.28;59.49;99618.88;9324568;29;20159;-77
2022/02/13 18:14:39;;;;;;;18.52;9.77;;;;;;;6.13;60.04;99608.41;8406715;34;20148;-77
2022/02/13 18:19:42;;;;;;;15.88;8.98;;;;;;;6.26;59.69;99620.81;8418904;34;20151;-75
2022/02/13 18:24:47;;;;;;;13.38;8.75;;;;;;;6.04;60.47;99614.44;8404654;29;20572;-76
2022/02/13 18:29:50;;;;;;;15.52;8.80;;;;;;;5.99;60.33;99607.72;8359617;35;20344;-74
2022/02/13 18:34:53;;;;;;;15.55;9.55;;;;;;;6.11;60.23;99596.13;8360619;34;20388;-76
2022/02/13 18:39:57;;;;;;;17.25;10.10;;;;;;;6.07;60.25;99592.84;8360137;35;20181;-79
2022/02/13 18:45:00;;;;;;;20.25;11.13;;;;;;;6.25;59.87;99592.44;8365255;34;20153;-76
2022/02/13 18:50:08;;;;;;;16.88;9.73;;;;;;;6.12;60.09;99580.03;8411431;34;20308;-76
2022/02/13 18:55:15;;;;;;;16.67;9.02;;;;;;;6.14;60.12;99577.25;8413113;35;20464;-75
2022/02/13 19:00:20;;;;;;;15.68;9.88;;;;;;;6.09;60.06;99579.44;8412460;35;20129;-76
2022/02/13 19:05:23;;;;;;;14.10;8.85;;;;;;;6.07;59.91;99563.53;8412800;35;20607;-76
2022/02/13 19:10:27;;;;;;;14.88;8.48;;;;;;;6.29;59.43;99556.56;8412085;35;20204;-76
2022/02/13 19:15:33;;;;;;;14.65;9.15;;;;;;;6.35;58.94;99545.44;8412754;35;20553;-76
2022/02/13 19:20:36;;;;;;;15.15;9.15;;;;;;;6.35;58.52;99546.28;8413318;35;20129;-76
2022/02/13 19:25:42;;;;;;;10.13;6.97;;;;;;;6.10;59.14;99543.78;8416593;34;20225;-74
2022/02/13 19:30:47;;;;;;;14.20;9.40;;;;;;;6.22;58.73;99528.66;8433626;35;20149;-75
2022/02/13 19:35:52;;;;;;;12.13;7.40;;;;;;;6.18;58.79;99523.56;8434417;35;20176;-74
2022/02/13 19:40:59;;;;;;;14.68;8.52;;;;;;;6.50;57.85;99524.72;8415015;35;20157;-76
2022/02/13 19:46:02;;;;;;;11.40;7.68;;;;;;;6.39;58.02;99521.09;8413337;35;20244;-76
2022/02/13 19:51:06;;;;;;;12.50;7.70;;;;;;;6.53;57.44;99509.34;8412718;35;20554;-76
2022/02/13 19:56:10;;;;;;;12.93;7.85;;;;;;;6.47;57.41;99514.28;8412732;34;20633;-75
2022/02/13 20:01:14;;;;;;;14.02;7.85;;;;;;;6.38;57.43;99506.03;8414436;34;20200;-75
2022/02/13 20:06:17;;;;;;;20.02;8.35;;;;;;;6.47;56.99;99492.94;8416453;34;20694;-75
2022/02/13 20:11:22;;;;;;;12.40;7.88;;;;;;;6.38;57.25;99497.19;8416325;34;20153;-75
2022/02/13 20:16:25;;;;;;;9.07;6.13;;;;;;;6.36;56.92;99478.63;8417008;34;20937;-75
2022/02/13 20:21:28;;;;;;;13.93;7.43;;;;;;;6.49;56.58;99472.34;8417066;34;20461;-75
2022/02/13 20:26:33;;;;;;;11.50;6.43;;;;;;;6.38;56.86;99455.34;8417070;34;20511;-75
2022/02/13 20:31:36;;;;;;;10.93;7.07;;;;;;;6.48;56.49;99458.16;8415623;34;20304;-73
2022/02/13 20:36:38;;;;;;;10.80;6.88;;;;;;;6.53;56.09;99458.63;8415770;34;20244;-75
2022/02/13 20:41:43;;;;;;;13.05;7.05;;;;;;;6.52;56.12;99456.91;8415277;34;20247;-75
2022/02/13 20:46:46;;;;;;;14.57;8.80;;;;;;;6.60;55.69;99448.31;8415250;34;20200;-75
2022/02/13 20:51:49;;;;;;;11.32;6.47;;;;;;;6.61;55.45;99444.69;8415295;34;20251;-75
2022/02/13 20:56:53;;;;;;;9.13;6.28;;;;;;;6.52;55.73;99442.75;8412820;34;20235;-75
2022/02/13 21:01:57;;;;;;;9.23;6.32;;;;;;;6.64;55.03;99433.78;8415500;34;20145;-74
2022/02/13 21:07:00;;;;;;;11.02;6.95;;;;;;;6.62;54.63;99430.38;8416305;34;20486;-75
2022/02/13 21:12:05;;;;;;;11.63;5.88;;;;;;;6.54;54.67;99411.47;8414396;34;20148;-75
2022/02/13 21:17:08;;;;;;;12.95;5.22;;;;;;;6.52;54.52;99400.91;8415959;34;20862;-75
2022/02/13 21:22:15;;;;;;;8.57;5.93;;;;;;;6.76;54.21;99387.41;8414598;34;20152;-75
2022/02/13 21:27:19;;;;;;;9.60;5.45;;;;;;;6.78;54.00;99393.47;8415797;34;20239;-75
2022/02/13 21:32:22;;;;;;;12.00;5.60;;;;;;;6.98;53.35;99399.88;8415566;34;20200;-75
2022/02/13 21:37:25;;;;;;;8.40;5.80;;;;;;;6.98;53.49;99389.22;8415297;34;20219;-74
2022/02/13 21:42:30;;;;;;;8.80;5.88;;;;;;;7.10;53.09;99384.66;8411113;34;20184;-75
2022/02/13 21:47:33;;;;;;;6.85;4.95;;;;;;;7.10;53.10;99383.81;8411469;34;20161;-75
2022/02/13 21:52:36;;;;;;;10.38;5.03;;;;;;;6.91;53.22;99384.50;8413809;34;20239;-74
2022/02/13 21:57:41;;;;;;;7.47;4.85;;;;;;;7.27;52.36;99367.28;8415130;34;20239;-74
2022/02/13 22:02:45;;;;;;;7.18;4.75;;;;;;;7.34;52.07;99365.78;8414699;34;20240;-73
2022/02/13 22:07:48;;;;;;;9.50;4.60;;;;;;;7.40;52.01;99364.41;8418892;34;20220;-75
2022/02/13 22:12:54;;;;;;;8.63;4.30;;;;;;;7.32;52.01;99357.03;8418273;34;20641;-74
2022/02/13 22:17:57;;;;;;;8.15;4.13;;;;;;;7.52;51.82;99351.84;8415082;34;20255;-74
2022/02/13 22:23:01;;;;;;;6.38;3.88;;;;;;;7.61;51.32;99348.38;8413836;34;20177;-74
2022/02/13 22:28:05;;;;;;;7.82;3.70;;;;;;;7.69;51.20;99345.91;8414764;34;20549;-75
2022/02/13 22:33:08;;;;;;;7.32;4.40;;;;;;;7.79;50.96;99337.94;8413776;34;20152;-75
2022/02/13 22:38:11;;;;;;;7.45;3.33;;;;;;;7.75;50.89;99341.88;8414214;34;20194;-75
2022/02/13 22:43:16;;;;;;;4.78;3.67;;;;;;;7.90;50.81;99322.69;8413678;34;20152;-74
2022/02/13 22:48:21;;;;;;;6.05;3.92;;;;;;;7.98;50.68;99319.34;8414138;34;20307;-74
2022/02/13 22:53:26;;;;;;;7.45;4.00;;;;;;;7.91;50.79;99321.69;8412291;35;20240;-75
2022/02/13 22:58:31;;;;;;;7.07;3.58;;;;;;;7.85;50.79;99308.03;8413537;34;20236;-73
2022/02/13 23:03:34;;;;;;;7.80;3.75;;;;;;;7.86;51.00;99307.03;8413080;35;20247;-74
2022/02/13 23:14:01;;;;;;;7.40;3.78;;;;;;;8.03;50.94;99270.78;8412831;34;20476;-76
2022/02/13 23:19:06;;;;;;;8.55;3.97;;;;;;;8.08;50.74;99285.44;8412307;35;20188;-76
2022/02/13 23:24:11;;;;;;;6.55;3.90;;;;;;;8.12;50.87;99284.22;8412406;35;20312;-75
2022/02/13 23:29:15;;;;;;;8.40;3.22;;;;;;;7.82;51.68;99270.88;8412018;35;20224;-75
2022/02/13 23:34:19;;;;;;;4.55;3.00;;;;;;;8.03;50.98;99252.06;8414188;34;20231;-75
2022/02/13 23:39:22;;;;;;;7.38;3.67;;;;;;;8.02;51.04;99258.41;8416637;34;20642;-74
2022/02/13 23:44:27;;;;;;;6.53;3.83;;;;;;;8.16;50.97;99239.31;8417810;34;20161;-75
2022/02/13 23:49:30;;;;;;;5.72;4.05;;;;;;;8.17;50.73;99225.81;8417325;34;20144;-73
2022/02/13 23:54:33;;;;;;;6.88;4.10;;;;;;;8.08;51.07;99215.91;8416893;34;20239;-76
2022/02/13 23:59:37;;;;;;;7.82;3.67;;;;;;;7.87;51.79;99223.16;8416325;34;20194;-74
